|

機場天氣預報 (TAF)

機場天氣預報 (TAF) 載述關於某個機場在預測期內預料會出現的氣象要素。

香港天文台在 17 年 04 月 24 日 01 時 00 分最新發出的香港國際機場天氣預報

TAF VHHH 231700Z 2318/2424 08010KT 8000 FEW015 SCT035 TX24/2406Z TN21/2323Z TN22/2423Z TEMPO 2403/2409 4000 SHRA TEMPO 2418/2421 4000 SHRA TEMPO 2421/2424 2500 TSRA SHRA FEW010CB SCT025=

(下次更新時間:17年04月24日07時00分)

機場天氣預報電碼經解碼後:-

香港天文台發出 2017 年 04 月 23 日 18 協調世界時 至 2017 年 04 月 24 日 24 協調世界時 的機場天氣預報:
 

時間(協調世界時) 能見度 天氣狀況 雲層 雲層高度
2017 年 04 月 23 日 18 時 至 2017 年 04 月 24 日 24 時 東風 (080 o) 10 海里/小時 8 公里 無重要天氣狀況
1-2
3-4
1500 呎
3500 呎
2017 年 04 月 24 日 03 時 至 09 時 期間間中 東風 (080 o) 10 海里/小時 4000 米 驟雨
1-2
3-4
1500 呎
3500 呎
2017 年 04 月 24 日 18 時 至 21 時 期間間中 東風 (080 o) 10 海里/小時 4000 米 驟雨
1-2
3-4
1500 呎
3500 呎
2017 年 04 月 24 日 21 時 至 24 時 期間間中 東風 (080 o) 10 海里/小時 2500 米 雷暴及雨, 驟雨
1-2 積雨雲
3-4
1000 呎
2500 呎

時間(協調世界時) 氣溫
2017 年 04 月 24 日 06 時
最高24 oC
2017 年 04 月 23 日 23 時
最低21 oC
2017 年 04 月 24 日 23 時
最低22 oC

份: 雲層是以估計天空被雲遮蔽之總面積來評定。把天空分為八份,1 份即是八份之一的天空被雲遮蔽,2 份即是八份之二的天空被雲遮蔽,如此類推。
  0 份 = 天朗氣清,1-2 份 = 稀薄雲層,3-4 份 = 零散雲層,5-7 份 = 疏鬆雲層,8 份 = 天色陰暗。
若想進一步瞭解機場天氣預報(TAF)的編碼,請參看剖析TAF電碼的意義
若想進一步瞭解雲,請參看香港常見的雲
 
香港國際機場航空天氣報告資料 本港地區航空天氣預報
 
版權及聲明